Time;durP1;ratioP1;P1;durP2;ratioP2;P2;SDS_P1;SDS_P2;PMS_P1;PMS_P2;Temp;Humidity;BMP_temperature;BMP_pressure;BME280_temperature;BME280_humidity;BME280_pressure;Samples;Min_cycle;Max_cycle;Signal;HPM_P1;HPM_P2
2021/07/22 00:00:55;;;;;;;17.10;10.07;;;;;;;;;;4991700;28;20477;-51
2021/07/22 00:06:25;;;;;;;1.27;1.17;;;;;;;;;;4992736;28;20399;-48
2021/07/22 00:08:51;;;;;;;17.10;10.50;;;;;;;;;;4992543;28;20934;-48
2021/07/22 00:11:17;;;;;;;16.43;11.93;;;;;;;;;;4992362;28;20817;-48
2021/07/22 00:13:43;;;;;;;14.40;10.97;;;;;;;;;;4992215;28;20789;-48
2021/07/22 00:16:13;;;;;;;15.87;12.13;;;;;;;;;;4992200;28;20764;-49
2021/07/22 00:18:39;;;;;;;23.47;13.80;;;;;;;;;;4992062;28;20481;-48
2021/07/22 00:21:06;;;;;;;14.80;11.93;;;;;;;;;;4991853;28;20490;-48
2021/07/22 00:23:32;;;;;;;20.73;13.90;;;;;;;;;;4991802;28;20463;-49
2021/07/22 00:26:02;;;;;;;19.83;11.67;;;;;;;;;;4991978;28;21053;-50
2021/07/22 00:28:28;;;;;;;14.80;11.37;;;;;;;;;;4991789;28;20495;-52
2021/07/22 00:30:54;;;;;;;17.60;12.33;;;;;;;;;;4991640;28;20527;-48
2021/07/22 00:33:20;;;;;;;20.83;12.70;;;;;;;;;;4991803;28;20385;-50
2021/07/22 00:35:46;;;;;;;20.17;12.43;;;;;;;;;;4991647;28;20404;-50
2021/07/22 00:38:12;;;;;;;19.63;14.93;;;;;;;;;;4991765;28;20408;-48
2021/07/22 00:40:47;;;;;;;27.37;16.53;;;;;;;;;;4991493;28;20442;-48
2021/07/22 00:43:13;;;;;;;14.80;9.53;;;;;;;;;;4991496;28;20410;-50
2021/07/22 00:45:39;;;;;;;19.67;11.60;;;;;;;;;;4991485;28;20375;-49
2021/07/22 00:48:05;;;;;;;19.30;12.30;;;;;;;;;;4991583;28;20404;-50
2021/07/22 00:50:32;;;;;;;18.50;12.53;;;;;;;;;;4991069;28;20462;-51
2021/07/22 00:52:58;;;;;;;23.63;12.37;;;;;;;;;;4991529;28;20380;-48
2021/07/22 00:55:25;;;;;;;18.20;10.70;;;;;;;;;;4973889;28;20981;-48
2021/07/22 00:57:51;;;;;;;19.10;12.60;;;;;;;;;;4991446;28;20374;-48
2021/07/22 01:00:17;;;;;;;18.13;10.70;;;;;;;;;;4991178;28;20422;-48
2021/07/22 01:02:43;;;;;;;15.93;10.90;;;;;;;;;;4990606;28;20403;-48
2021/07/22 01:05:10;;;;;;;21.10;11.50;;;;;;;;;;4990692;28;20849;-49
2021/07/22 01:07:36;;;;;;;16.77;11.17;;;;;;;;;;4991223;28;20404;-48
2021/07/22 01:10:03;;;;;;;15.90;10.87;;;;;;;;;;4991030;28;20765;-50
2021/07/22 01:12:29;;;;;;;19.30;11.27;;;;;;;;;;4990343;28;20418;-48
2021/07/22 01:14:55;;;;;;;19.37;11.10;;;;;;;;;;4990776;28;20421;-50
2021/07/22 01:17:37;;;;;;;19.23;12.10;;;;;;;;;;4991310;28;20414;-51
2021/07/22 01:20:08;;;;;;;15.87;11.73;;;;;;;;;;4991108;28;20427;-50
2021/07/22 01:22:34;;;;;;;20.07;11.90;;;;;;;;;;4990988;28;20758;-49
2021/07/22 01:24:59;;;;;;;19.47;12.00;;;;;;;;;;4990953;28;20470;-50
2021/07/22 01:27:25;;;;;;;19.70;12.17;;;;;;;;;;4991259;28;20378;-51
2021/07/22 01:29:51;;;;;;;16.03;11.20;;;;;;;;;;4990998;28;20432;-51
2021/07/22 01:32:18;;;;;;;19.67;11.37;;;;;;;;;;4991146;28;20414;-50
2021/07/22 01:34:44;;;;;;;19.40;13.40;;;;;;;;;;4991251;28;20448;-51
2021/07/22 01:37:10;;;;;;;17.73;12.20;;;;;;;;;;4991131;28;20976;-52
2021/07/22 01:39:35;;;;;;;26.43;11.97;;;;;;;;;;4991125;28;20386;-51
2021/07/22 01:42:01;;;;;;;18.17;12.17;;;;;;;;;;4990895;28;20470;-48
2021/07/22 01:44:29;;;;;;;15.60;11.30;;;;;;;;;;4991059;28;20438;-48
2021/07/22 01:46:55;;;;;;;21.50;11.73;;;;;;;;;;4991092;28;20484;-48
2021/07/22 01:49:21;;;;;;;18.00;11.00;;;;;;;;;;4991352;28;20412;-47
2021/07/22 01:51:47;;;;;;;19.43;11.40;;;;;;;;;;4990849;28;20477;-48
2021/07/22 01:54:13;;;;;;;18.10;12.20;;;;;;;;;;4991213;28;20404;-48
2021/07/22 01:56:39;;;;;;;16.70;11.20;;;;;;;;;;4990958;28;20405;-50
2021/07/22 01:59:04;;;;;;;15.80;11.27;;;;;;;;;;4990951;28;20399;-51
2021/07/22 02:01:30;;;;;;;20.33;13.10;;;;;;;;;;4990540;28;20991;-49
2021/07/22 02:03:56;;;;;;;17.20;12.00;;;;;;;;;;4990807;28;21183;-49
2021/07/22 02:06:22;;;;;;;14.10;10.23;;;;;;;;;;4990774;28;20876;-51
2021/07/22 02:08:48;;;;;;;17.90;11.63;;;;;;;;;;4990899;28;20763;-51
2021/07/22 02:11:14;;;;;;;20.50;13.37;;;;;;;;;;4990479;28;20395;-48
2021/07/22 02:13:40;;;;;;;17.80;11.10;;;;;;;;;;4990682;28;20407;-48
2021/07/22 02:16:07;;;;;;;18.37;13.03;;;;;;;;;;4990658;28;20411;-48
2021/07/22 02:18:33;;;;;;;18.20;11.70;;;;;;;;;;4990737;28;20412;-49
2021/07/22 02:20:59;;;;;;;18.67;12.00;;;;;;;;;;4990276;28;20405;-49
2021/07/22 02:23:25;;;;;;;18.90;12.20;;;;;;;;;;4990631;28;20882;-51
2021/07/22 02:25:51;;;;;;;17.57;12.30;;;;;;;;;;4993611;28;20400;-51
2021/07/22 02:28:17;;;;;;;18.90;13.00;;;;;;;;;;4994012;28;20435;-48
2021/07/22 02:30:42;;;;;;;16.87;12.07;;;;;;;;;;4993894;28;20804;-48
2021/07/22 02:33:10;;;;;;;16.70;11.90;;;;;;;;;;4993872;28;20910;-48
2021/07/22 02:35:36;;;;;;;21.20;12.60;;;;;;;;;;4994043;28;20427;-48
2021/07/22 02:38:01;;;;;;;18.90;11.90;;;;;;;;;;4993809;28;20571;-48
2021/07/22 02:40:27;;;;;;;213.50;35.73;;;;;;;;;;4993698;28;20427;-48
2021/07/22 02:42:53;;;;;;;18.60;12.10;;;;;;;;;;4993682;28;20411;-49
2021/07/22 02:45:19;;;;;;;21.73;12.20;;;;;;;;;;4993806;28;20473;-50
2021/07/22 02:47:45;;;;;;;15.63;11.33;;;;;;;;;;4993738;28;20379;-51
2021/07/22 02:50:11;;;;;;;18.83;12.27;;;;;;;;;;4993444;28;20451;-52
2021/07/22 02:52:37;;;;;;;17.40;11.60;;;;;;;;;;4993476;28;20378;-49
2021/07/22 02:55:04;;;;;;;16.10;11.40;;;;;;;;;;4993678;28;20404;-49
2021/07/22 02:57:30;;;;;;;15.23;11.33;;;;;;;;;;4993521;28;20379;-49
2021/07/22 02:59:58;;;;;;;16.13;11.83;;;;;;;;;;4993518;28;20426;-49
2021/07/22 03:02:24;;;;;;;17.50;11.50;;;;;;;;;;4993186;28;20466;-48
2021/07/22 03:04:50;;;;;;;20.53;11.47;;;;;;;;;;4993411;28;20909;-49
2021/07/22 03:07:16;;;;;;;15.33;11.00;;;;;;;;;;4993347;28;20750;-51
2021/07/22 03:09:42;;;;;;;16.37;10.93;;;;;;;;;;4993358;28;20884;-51
2021/07/22 03:12:08;;;;;;;17.73;11.73;;;;;;;;;;4992869;28;20418;-51
2021/07/22 03:14:34;;;;;;;16.90;11.77;;;;;;;;;;4993359;28;20436;-49
2021/07/22 03:17:00;;;;;;;21.47;12.00;;;;;;;;;;4993287;28;21095;-50
2021/07/22 03:19:26;;;;;;;16.53;11.13;;;;;;;;;;4993000;28;20839;-51
2021/07/22 03:21:52;;;;;;;16.73;11.13;;;;;;;;;;4992925;28;20790;-48
2021/07/22 03:24:17;;;;;;;15.50;10.10;;;;;;;;;;4992930;28;20512;-48
2021/07/22 03:26:43;;;;;;;249.47;25.67;;;;;;;;;;4993277;28;20399;-48
2021/07/22 03:29:09;;;;;;;18.47;12.17;;;;;;;;;;4993139;28;20864;-48
2021/07/22 03:31:35;;;;;;;16.30;11.23;;;;;;;;;;4993094;28;20787;-48
2021/07/22 03:34:01;;;;;;;16.03;11.13;;;;;;;;;;4993074;28;20765;-48
2021/07/22 03:36:27;;;;;;;76.70;37.60;;;;;;;;;;4992321;28;20906;-48
2021/07/22 03:38:53;;;;;;;14.33;10.33;;;;;;;;;;4993045;28;20937;-48
2021/07/22 03:41:22;;;;;;;19.17;10.97;;;;;;;;;;4992813;28;20475;-49
2021/07/22 03:43:49;;;;;;;17.93;11.70;;;;;;;;;;4992765;28;20461;-47
2021/07/22 03:46:15;;;;;;;721.30;311.47;;;;;;;;;;4992835;28;20839;-51
2021/07/22 03:48:40;;;;;;;29.87;13.27;;;;;;;;;;4992606;28;20420;-48
2021/07/22 03:51:06;;;;;;;79.40;21.17;;;;;;;;;;4992749;28;20443;-48
2021/07/22 03:53:32;;;;;;;19.07;12.20;;;;;;;;;;4992330;28;20387;-48
2021/07/22 03:56:00;;;;;;;20.23;11.40;;;;;;;;;;4992124;28;20408;-48
2021/07/22 03:58:26;;;;;;;12.70;9.50;;;;;;;;;;4992452;28;20442;-49
2021/07/22 04:00:54;;;;;;;17.03;11.53;;;;;;;;;;4991130;28;20455;-48
2021/07/22 04:03:21;;;;;;;18.90;12.50;;;;;;;;;;4992029;28;20495;-48
2021/07/22 04:05:47;;;;;;;15.97;11.30;;;;;;;;;;4992309;28;20555;-48
2021/07/22 04:08:13;;;;;;;14.23;10.87;;;;;;;;;;4992318;28;20985;-48
2021/07/22 04:10:39;;;;;;;19.07;11.80;;;;;;;;;;4991885;28;20439;-48
2021/07/22 04:13:05;;;;;;;17.50;10.80;;;;;;;;;;4992403;28;20415;-48
2021/07/22 04:15:31;;;;;;;16.53;11.60;;;;;;;;;;4992042;28;20804;-48
2021/07/22 04:17:57;;;;;;;12.93;9.23;;;;;;;;;;4992095;28;20881;-48
2021/07/22 04:20:24;;;;;;;16.57;11.63;;;;;;;;;;4991864;28;20506;-50
2021/07/22 04:22:52;;;;;;;15.30;10.60;;;;;;;;;;4991973;28;20867;-49
2021/07/22 04:25:18;;;;;;;15.20;10.50;;;;;;;;;;4991722;28;20452;-49
2021/07/22 04:27:44;;;;;;;19.20;12.23;;;;;;;;;;4991921;28;20390;-49
2021/07/22 04:30:10;;;;;;;14.50;10.40;;;;;;;;;;4991905;28;20420;-49
2021/07/22 04:32:37;;;;;;;14.43;10.80;;;;;;;;;;4991654;28;20972;-50
2021/07/22 04:35:04;;;;;;;16.47;11.27;;;;;;;;;;4991622;28;20401;-48
2021/07/22 04:37:30;;;;;;;15.70;10.47;;;;;;;;;;4992020;28;20392;-49
2021/07/22 04:39:56;;;;;;;17.73;12.20;;;;;;;;;;4991500;28;21034;-50
2021/07/22 04:42:22;;;;;;;19.23;12.00;;;;;;;;;;4991447;28;20436;-48
2021/07/22 04:44:48;;;;;;;17.40;12.10;;;;;;;;;;4991379;28;20715;-49
2021/07/22 04:47:14;;;;;;;17.60;11.53;;;;;;;;;;4991394;28;20422;-48
2021/07/22 04:49:40;;;;;;;17.67;11.47;;;;;;;;;;4991212;28;20372;-49
2021/07/22 04:52:06;;;;;;;20.53;12.10;;;;;;;;;;4991399;28;20814;-49
2021/07/22 04:54:32;;;;;;;15.70;10.57;;;;;;;;;;4973817;28;20795;-49
2021/07/22 04:56:57;;;;;;;17.10;11.70;;;;;;;;;;4991891;28;20466;-49
2021/07/22 04:59:23;;;;;;;18.50;11.93;;;;;;;;;;4991359;28;20904;-50
2021/07/22 05:01:49;;;;;;;19.07;11.90;;;;;;;;;;4991054;28;20417;-48
2021/07/22 05:04:18;;;;;;;20.47;11.60;;;;;;;;;;4991362;28;20434;-48
2021/07/22 05:06:44;;;;;;;16.40;10.20;;;;;;;;;;4991354;28;20379;-50
2021/07/22 05:09:10;;;;;;;21.20;11.87;;;;;;;;;;4991310;28;20378;-50
2021/07/22 05:11:36;;;;;;;23.93;11.53;;;;;;;;;;4990930;28;20420;-48
2021/07/22 05:14:02;;;;;;;19.17;11.90;;;;;;;;;;4991103;28;20382;-48
2021/07/22 05:16:28;;;;;;;15.70;10.93;;;;;;;;;;4991174;28;20548;-48
2021/07/22 05:18:54;;;;;;;25.63;11.30;;;;;;;;;;4991369;28;20407;-49
2021/07/22 05:21:20;;;;;;;18.90;11.30;;;;;;;;;;4991065;28;20403;-49
2021/07/22 05:23:46;;;;;;;87.17;19.10;;;;;;;;;;4991494;28;20485;-49
2021/07/22 05:26:12;;;;;;;18.13;11.00;;;;;;;;;;4991074;28;20411;-48
2021/07/22 05:28:38;;;;;;;20.47;10.30;;;;;;;;;;4991154;28;20830;-48
2021/07/22 05:31:05;;;;;;;15.30;10.80;;;;;;;;;;4990763;28;20509;-48
2021/07/22 05:33:31;;;;;;;15.50;10.77;;;;;;;;;;4991033;28;20431;-49
2021/07/22 05:36:00;;;;;;;51.80;11.73;;;;;;;;;;4991012;28;20411;-50
2021/07/22 05:38:26;;;;;;;17.60;11.47;;;;;;;;;;4991658;28;20415;-48
2021/07/22 05:40:52;;;;;;;22.53;11.57;;;;;;;;;;4991056;28;20464;-48
2021/07/22 05:43:18;;;;;;;15.23;9.53;;;;;;;;;;4991806;28;20538;-48
2021/07/22 05:45:44;;;;;;;12.30;10.00;;;;;;;;;;4991158;28;20422;-48
2021/07/22 05:48:10;;;;;;;20.37;11.70;;;;;;;;;;4991209;28;20373;-48
2021/07/22 05:50:36;;;;;;;143.30;19.00;;;;;;;;;;4990630;28;20979;-49
2021/07/22 05:53:02;;;;;;;65.60;16.37;;;;;;;;;;4990900;28;20422;-50
2021/07/22 05:55:28;;;;;;;34.47;11.30;;;;;;;;;;4991008;28;20566;-50
2021/07/22 05:57:54;;;;;;;38.00;12.23;;;;;;;;;;4990710;28;20416;-49
2021/07/22 06:00:20;;;;;;;18.87;10.43;;;;;;;;;;4993130;28;20455;-50
2021/07/22 06:02:46;;;;;;;17.13;9.73;;;;;;;;;;4994454;28;20507;-50
2021/07/22 06:05:12;;;;;;;21.13;10.60;;;;;;;;;;4994531;28;20510;-48
2021/07/22 06:07:38;;;;;;;13.70;9.40;;;;;;;;;;4994718;28;20414;-48
2021/07/22 06:10:04;;;;;;;15.90;9.83;;;;;;;;;;4994455;28;20428;-49
2021/07/22 06:12:30;;;;;;;18.87;9.67;;;;;;;;;;4994115;28;20555;-49
2021/07/22 06:14:57;;;;;;;15.83;9.20;;;;;;;;;;4994430;28;20424;-48
2021/07/22 06:17:23;;;;;;;18.70;10.00;;;;;;;;;;4994348;28;20456;-50
2021/07/22 06:19:50;;;;;;;12.90;9.27;;;;;;;;;;4994319;28;20515;-48
2021/07/22 06:22:15;;;;;;;16.07;9.80;;;;;;;;;;4993886;28;20466;-49
2021/07/22 06:24:41;;;;;;;16.50;10.90;;;;;;;;;;4994525;28;20456;-49
2021/07/22 06:27:11;;;;;;;13.10;8.90;;;;;;;;;;4993965;28;20903;-50
2021/07/22 06:29:37;;;;;;;20.43;10.30;;;;;;;;;;4994083;28;20401;-49
2021/07/22 06:32:03;;;;;;;23.93;9.63;;;;;;;;;;4993943;28;20404;-49
2021/07/22 06:34:29;;;;;;;14.03;9.60;;;;;;;;;;4994082;28;20411;-48
2021/07/22 06:36:55;;;;;;;12.43;8.83;;;;;;;;;;4993768;28;20412;-49
2021/07/22 06:39:21;;;;;;;13.27;9.60;;;;;;;;;;4993825;28;20408;-49
2021/07/22 06:41:47;;;;;;;16.17;9.47;;;;;;;;;;4993070;28;20517;-49
2021/07/22 06:44:13;;;;;;;10.73;8.80;;;;;;;;;;4993454;28;21068;-50
2021/07/22 06:46:39;;;;;;;190.97;45.67;;;;;;;;;;4993219;28;20927;-49
2021/07/22 06:49:05;;;;;;;137.17;22.00;;;;;;;;;;4993334;28;20542;-49
2021/07/22 06:51:31;;;;;;;28.73;13.00;;;;;;;;;;4992939;28;20599;-49
2021/07/22 06:53:57;;;;;;;15.67;9.27;;;;;;;;;;4992862;28;20404;-50
2021/07/22 06:56:23;;;;;;;19.07;10.07;;;;;;;;;;4993138;28;20977;-49
2021/07/22 06:58:49;;;;;;;14.33;9.60;;;;;;;;;;4993021;28;20405;-48
2021/07/22 07:01:16;;;;;;;149.00;19.17;;;;;;;;;;4993398;28;20449;-49
2021/07/22 07:03:42;;;;;;;107.63;14.53;;;;;;;;;;4993388;28;20550;-49
2021/07/22 07:06:08;;;;;;;18.70;10.87;;;;;;;;;;4993662;28;20405;-49
2021/07/22 07:08:34;;;;;;;13.83;9.83;;;;;;;;;;4993441;28;20411;-49
2021/07/22 07:11:00;;;;;;;11.20;9.40;;;;;;;;;;4993501;28;20426;-50
2021/07/22 07:13:26;;;;;;;15.23;9.23;;;;;;;;;;4993432;28;20539;-49
2021/07/22 07:15:52;;;;;;;13.63;8.80;;;;;;;;;;4993661;28;20543;-49
2021/07/22 07:18:18;;;;;;;12.10;9.87;;;;;;;;;;4993288;28;20873;-50
2021/07/22 07:20:44;;;;;;;12.37;8.93;;;;;;;;;;4993049;28;20841;-51
2021/07/22 07:23:10;;;;;;;14.77;10.20;;;;;;;;;;4992921;28;20894;-49
2021/07/22 07:25:37;;;;;;;17.30;9.77;;;;;;;;;;4993066;28;20462;-49
2021/07/22 07:28:03;;;;;;;13.23;9.27;;;;;;;;;;4993190;28;20415;-49
2021/07/22 07:30:29;;;;;;;12.20;9.40;;;;;;;;;;4992993;28;20478;-49
2021/07/22 07:32:55;;;;;;;14.10;9.60;;;;;;;;;;4992804;28;20916;-49
2021/07/22 07:35:23;;;;;;;11.50;8.70;;;;;;;;;;4992920;28;20419;-49
2021/07/22 07:37:50;;;;;;;13.63;8.87;;;;;;;;;;4992583;28;20905;-49
2021/07/22 07:40:16;;;;;;;11.40;8.10;;;;;;;;;;4992799;28;20574;-49
2021/07/22 07:42:42;;;;;;;10.43;7.77;;;;;;;;;;4992680;28;20400;-49
2021/07/22 07:45:08;;;;;;;11.47;8.27;;;;;;;;;;4992547;28;20466;-49
2021/07/22 07:47:34;;;;;;;11.30;8.60;;;;;;;;;;4992709;28;20443;-49
2021/07/22 07:50:00;;;;;;;13.30;8.27;;;;;;;;;;4992366;28;20440;-49
2021/07/22 07:52:28;;;;;;;13.10;8.23;;;;;;;;;;4992338;28;20404;-49
2021/07/22 07:54:54;;;;;;;14.13;7.63;;;;;;;;;;4992538;28;20512;-49
2021/07/22 07:57:20;;;;;;;11.77;7.83;;;;;;;;;;4992460;28;20789;-49
2021/07/22 07:59:46;;;;;;;10.53;8.20;;;;;;;;;;4992385;28;20479;-49
2021/07/22 08:02:16;;;;;;;9.40;7.93;;;;;;;;;;4992240;28;21014;-49
2021/07/22 08:04:42;;;;;;;8.57;7.23;;;;;;;;;;4992066;28;20550;-49
2021/07/22 08:07:08;;;;;;;12.13;8.60;;;;;;;;;;4992215;28;20848;-50
2021/07/22 08:09:33;;;;;;;10.70;8.00;;;;;;;;;;4992042;28;20454;-50
2021/07/22 08:12:01;;;;;;;9.73;7.87;;;;;;;;;;4992000;28;20442;-49
2021/07/22 08:14:27;;;;;;;9.90;7.50;;;;;;;;;;4992006;28;20402;-49
2021/07/22 08:16:53;;;;;;;11.30;7.77;;;;;;;;;;4992625;28;20477;-49
2021/07/22 08:19:18;;;;;;;8.90;8.00;;;;;;;;;;4991859;28;20409;-49
2021/07/22 08:21:44;;;;;;;9.13;6.87;;;;;;;;;;4991287;28;20515;-50
2021/07/22 08:24:10;;;;;;;9.93;7.20;;;;;;;;;;4991744;28;20668;-50
2021/07/22 08:26:36;;;;;;;13.57;7.53;;;;;;;;;;4991954;28;20514;-51
2021/07/22 08:29:02;;;;;;;9.53;7.77;;;;;;;;;;4991865;28;20462;-50
2021/07/22 08:31:28;;;;;;;8.50;7.60;;;;;;;;;;4991661;28;21059;-50
2021/07/22 08:33:56;;;;;;;11.23;7.93;;;;;;;;;;4991546;28;20546;-50
2021/07/22 08:36:22;;;;;;;9.70;7.13;;;;;;;;;;4991727;28;20176;-50
2021/07/22 08:38:48;;;;;;;8.37;6.13;;;;;;;;;;4991878;28;20400;-50
2021/07/22 08:41:14;;;;;;;13.90;9.20;;;;;;;;;;4985627;28;20196;-50
2021/07/22 08:43:40;;;;;;;146.87;19.60;;;;;;;;;;4991633;28;20460;-50
2021/07/22 08:46:06;;;;;;;8.20;6.30;;;;;;;;;;4991604;28;20404;-50
2021/07/22 08:48:35;;;;;;;7.63;6.83;;;;;;;;;;4991532;28;20191;-50
2021/07/22 08:51:01;;;;;;;9.67;7.33;;;;;;;;;;4991100;28;20447;-50
2021/07/22 08:53:27;;;;;;;9.20;7.03;;;;;;;;;;4987018;28;20534;-49
2021/07/22 08:55:54;;;;;;;11.07;7.17;;;;;;;;;;4988005;28;20415;-49
2021/07/22 08:58:20;;;;;;;8.57;7.67;;;;;;;;;;4991200;28;20440;-52
2021/07/22 09:00:46;;;;;;;8.10;7.20;;;;;;;;;;4986593;28;20511;-50
2021/07/22 09:03:13;;;;;;;15.67;4.90;;;;;;;;;;4991318;28;20451;-51
2021/07/22 09:05:39;;;;;;;7.67;5.90;;;;;;;;;;4991962;28;20464;-50
2021/07/22 09:08:05;;;;;;;11.40;5.30;;;;;;;;;;4982878;28;20977;-50
2021/07/22 09:10:31;;;;;;;6.63;5.20;;;;;;;;;;4991100;28;20775;-51
2021/07/22 09:12:57;;;;;;;6.20;4.83;;;;;;;;;;4991087;28;20487;-51
2021/07/22 09:15:27;;;;;;;8.13;4.73;;;;;;;;;;4990044;28;20435;-50
2021/07/22 09:17:53;;;;;;;46.20;14.83;;;;;;;;;;4983781;28;20461;-52
2021/07/22 09:20:27;;;;;;;8.20;7.40;;;;;;;;;;4990850;28;20503;-51
2021/07/22 09:22:52;;;;;;;13.23;10.13;;;;;;;;;;4991091;28;20438;-52
2021/07/22 09:25:19;;;;;;;10.90;7.53;;;;;;;;;;4990937;28;20546;-52
2021/07/22 09:27:45;;;;;;;7.47;6.73;;;;;;;;;;4990969;28;20168;-52
2021/07/22 09:30:17;;;;;;;8.90;7.07;;;;;;;;;;4990651;28;20500;-51
2021/07/22 09:32:50;;;;;;;9.50;7.93;;;;;;;;;;4990813;28;20407;-51
2021/07/22 09:35:23;;;;;;;10.20;6.90;;;;;;;;;;4993447;28;20411;-52
2021/07/22 09:37:50;;;;;;;10.20;7.83;;;;;;;;;;4994580;28;20435;-51
2021/07/22 09:40:32;;;;;;;9.97;8.30;;;;;;;;;;4994646;28;20436;-52
2021/07/22 09:42:58;;;;;;;6.57;5.97;;;;;;;;;;4994558;28;20885;-52
2021/07/22 09:45:25;;;;;;;7.33;6.63;;;;;;;;;;4994688;28;20455;-51
2021/07/22 09:47:52;;;;;;;6.67;5.97;;;;;;;;;;4994825;28;20438;-51
2021/07/22 09:50:22;;;;;;;9.33;8.33;;;;;;;;;;4994319;28;20933;-51
2021/07/22 09:52:48;;;;;;;12.87;9.80;;;;;;;;;;4995745;28;20494;-51
2021/07/22 09:55:23;;;;;;;7.83;7.10;;;;;;;;;;4994364;28;20404;-50
2021/07/22 09:57:53;;;;;;;8.83;8.00;;;;;;;;;;4994584;28;20409;-52
2021/07/22 10:00:20;;;;;;;8.37;7.60;;;;;;;;;;4994177;28;20427;-51
2021/07/22 10:02:46;;;;;;;10.03;7.20;;;;;;;;;;4994225;28;20440;-51
2021/07/22 10:05:16;;;;;;;8.20;7.00;;;;;;;;;;4993773;28;20949;-52
2021/07/22 10:07:42;;;;;;;9.57;7.23;;;;;;;;;;4993524;28;20466;-52
2021/07/22 10:10:09;;;;;;;21.37;9.13;;;;;;;;;;4993857;28;20917;-52
2021/07/22 10:12:35;;;;;;;9.07;7.40;;;;;;;;;;4993484;28;20457;-51
2021/07/22 10:15:07;;;;;;;7.40;6.63;;;;;;;;;;4988608;28;20768;-53
2021/07/22 10:17:36;;;;;;;9.50;6.90;;;;;;;;;;4976705;28;20430;-53
2021/07/22 10:20:04;;;;;;;7.33;6.13;;;;;;;;;;4993682;28;20423;-52
2021/07/22 10:22:30;;;;;;;8.97;8.07;;;;;;;;;;4993671;28;20948;-53
2021/07/22 10:24:56;;;;;;;11.53;7.43;;;;;;;;;;4992270;28;20487;-51
2021/07/22 10:27:28;;;;;;;8.17;7.37;;;;;;;;;;4994039;28;20442;-52
2021/07/22 10:29:54;;;;;;;10.23;7.47;;;;;;;;;;4994818;28;20446;-52
2021/07/22 10:32:25;;;;;;;10.90;8.60;;;;;;;;;;4992144;28;20422;-52
2021/07/22 10:34:54;;;;;;;9.93;7.60;;;;;;;;;;4992939;28;20425;-52
2021/07/22 10:37:20;;;;;;;10.53;8.67;;;;;;;;;;4993392;28;20396;-51
2021/07/22 10:40:10;;;;;;;11.73;8.23;;;;;;;;;;5007967;28;20503;-51
2021/07/22 10:42:47;;;;;;;9.57;7.90;;;;;;;;;;5012313;28;20403;-52
2021/07/22 10:45:33;;;;;;;10.73;8.37;;;;;;;;;;4997706;28;20860;-52
2021/07/22 10:47:59;;;;;;;8.13;7.33;;;;;;;;;;5012425;28;20951;-52
2021/07/22 10:50:42;;;;;;;12.03;9.47;;;;;;;;;;5012676;28;20447;-52
2021/07/22 10:53:08;;;;;;;11.63;9.27;;;;;;;;;;5012427;28;21105;-52
2021/07/22 10:55:43;;;;;;;13.37;9.53;;;;;;;;;;5012540;28;20840;-52
2021/07/22 10:58:24;;;;;;;9.87;8.80;;;;;;;;;;5012661;28;20497;-52
2021/07/22 11:00:50;;;;;;;9.33;8.07;;;;;;;;;;5012314;28;20441;-52
2021/07/22 11:03:37;;;;;;;10.63;9.53;;;;;;;;;;5012450;28;20404;-53
2021/07/22 11:06:04;;;;;;;10.57;8.33;;;;;;;;;;4998342;28;20442;-50
2021/07/22 11:08:31;;;;;;;8.37;7.57;;;;;;;;;;5012534;28;20490;-50
2021/07/22 11:10:58;;;;;;;8.40;7.60;;;;;;;;;;5011922;28;20494;-51
2021/07/22 11:13:33;;;;;;;11.30;8.10;;;;;;;;;;5012802;28;20406;-50
2021/07/22 11:16:00;;;;;;;10.93;9.73;;;;;;;;;;5012955;28;20407;-52
2021/07/22 11:18:44;;;;;;;10.33;8.17;;;;;;;;;;5012751;28;20410;-52
2021/07/22 11:21:10;;;;;;;15.23;9.20;;;;;;;;;;5012222;28;20415;-53
2021/07/22 11:23:37;;;;;;;11.67;8.70;;;;;;;;;;5012478;28;20848;-52
2021/07/22 11:26:03;;;;;;;14.20;10.80;;;;;;;;;;5012479;28;20407;-51
2021/07/22 11:28:29;;;;;;;9.73;8.73;;;;;;;;;;5012381;28;20409;-51
2021/07/22 11:31:08;;;;;;;11.03;9.90;;;;;;;;;;4994153;28;20493;-51
2021/07/22 11:33:36;;;;;;;10.67;9.57;;;;;;;;;;4981224;28;20921;-50
2021/07/22 11:36:05;;;;;;;14.00;9.07;;;;;;;;;;4980230;28;20488;-51
2021/07/22 11:38:31;;;;;;;11.77;10.13;;;;;;;;;;4990121;28;20439;-51
2021/07/22 11:40:57;;;;;;;10.73;9.33;;;;;;;;;;4992629;28;20478;-50
2021/07/22 11:43:32;;;;;;;12.50;10.20;;;;;;;;;;4992637;28;20411;-51
2021/07/22 11:45:58;;;;;;;13.30;10.10;;;;;;;;;;4992840;28;20400;-51
2021/07/22 11:48:25;;;;;;;12.13;9.27;;;;;;;;;;4974236;28;20439;-51
2021/07/22 11:51:01;;;;;;;12.23;9.93;;;;;;;;;;4973066;28;20455;-51
2021/07/22 11:53:28;;;;;;;12.53;8.60;;;;;;;;;;4973269;28;20435;-51
2021/07/22 11:55:54;;;;;;;11.33;9.40;;;;;;;;;;4973267;28;20915;-50
2021/07/22 11:58:20;;;;;;;12.23;10.20;;;;;;;;;;4972253;28;20405;-51
2021/07/22 12:00:46;;;;;;;16.80;11.53;;;;;;;;;;4972925;28;20512;-49
2021/07/22 12:03:12;;;;;;;18.87;12.90;;;;;;;;;;4974265;28;20512;-50
2021/07/22 12:05:38;;;;;;;13.67;11.20;;;;;;;;;;4982453;28;20518;-50
2021/07/22 12:08:17;;;;;;;15.80;12.97;;;;;;;;;;4976048;28;20902;-51
2021/07/22 12:10:43;;;;;;;19.43;13.53;;;;;;;;;;4983364;28;20428;-51
2021/07/22 12:13:10;;;;;;;15.33;11.70;;;;;;;;;;4984736;28;20404;-52
2021/07/22 12:15:36;;;;;;;14.30;10.37;;;;;;;;;;4976479;28;20405;-53
2021/07/22 12:18:03;;;;;;;17.00;9.30;;;;;;;;;;4980121;28;21129;-51
2021/07/22 12:20:29;;;;;;;16.30;10.53;;;;;;;;;;4976455;28;20441;-51
2021/07/22 12:22:55;;;;;;;11.77;10.57;;;;;;;;;;4985103;28;20905;-51
2021/07/22 12:25:21;;;;;;;11.70;10.50;;;;;;;;;;4981915;28;20463;-51
2021/07/22 12:27:50;;;;;;;12.07;10.10;;;;;;;;;;4974056;28;20503;-50
2021/07/22 12:30:17;;;;;;;13.60;10.53;;;;;;;;;;4988025;28;20427;-51
2021/07/22 12:32:52;;;;;;;15.30;10.57;;;;;;;;;;4975803;28;20917;-51
2021/07/22 12:35:38;;;;;;;11.67;10.40;;;;;;;;;;4983255;28;20412;-51
2021/07/22 12:38:05;;;;;;;11.33;9.80;;;;;;;;;;4986830;28;20848;-51
2021/07/22 12:40:32;;;;;;;360.80;258.37;;;;;;;;;;4976327;28;20963;-51
2021/07/22 12:42:58;;;;;;;132.37;31.43;;;;;;;;;;4991382;28;20461;-50
2021/07/22 12:45:24;;;;;;;275.73;34.60;;;;;;;;;;4980195;28;20488;-50
2021/07/22 12:47:50;;;;;;;12.87;11.00;;;;;;;;;;4980815;28;20408;-51
2021/07/22 12:50:28;;;;;;;12.03;9.57;;;;;;;;;;4981726;28;20448;-50
2021/07/22 12:52:54;;;;;;;11.83;10.07;;;;;;;;;;4973110;28;20483;-50
2021/07/22 12:55:38;;;;;;;13.60;11.10;;;;;;;;;;4986548;28;20447;-51
2021/07/22 12:58:04;;;;;;;11.53;10.43;;;;;;;;;;4990704;28;20400;-51
2021/07/22 13:00:30;;;;;;;14.00;11.20;;;;;;;;;;4991070;28;20754;-50
2021/07/22 13:03:00;;;;;;;12.63;10.40;;;;;;;;;;4989777;28;20805;-51
2021/07/22 13:05:26;;;;;;;13.33;11.10;;;;;;;;;;4991503;28;20499;-51
2021/07/22 13:07:52;;;;;;;16.13;11.27;;;;;;;;;;4991370;28;20408;-52
2021/07/22 13:10:19;;;;;;;15.67;11.23;;;;;;;;;;4991066;28;20422;-53
2021/07/22 13:12:45;;;;;;;14.17;10.27;;;;;;;;;;4991371;28;21047;-52
2021/07/22 13:15:12;;;;;;;11.67;10.47;;;;;;;;;;4991244;28;20412;-52
2021/07/22 13:17:41;;;;;;;11.73;10.30;;;;;;;;;;4991561;28;20400;-52
2021/07/22 13:20:08;;;;;;;126.33;17.03;;;;;;;;;;4991397;28;20430;-52
2021/07/22 13:22:34;;;;;;;13.90;9.70;;;;;;;;;;4991180;28;20408;-51
2021/07/22 13:25:00;;;;;;;13.80;10.50;;;;;;;;;;4991221;28;20525;-50
2021/07/22 13:27:26;;;;;;;14.60;12.30;;;;;;;;;;4991287;28;20404;-50
2021/07/22 13:29:52;;;;;;;12.70;11.00;;;;;;;;;;4990946;28;20478;-52
2021/07/22 13:32:18;;;;;;;14.73;12.43;;;;;;;;;;4991071;28;20981;-52
2021/07/22 13:34:45;;;;;;;13.90;11.87;;;;;;;;;;4991226;28;20774;-52
2021/07/22 13:37:11;;;;;;;13.53;12.20;;;;;;;;;;4991281;28;20404;-51
2021/07/22 13:39:38;;;;;;;12.80;11.50;;;;;;;;;;4991165;28;20410;-51
2021/07/22 13:42:07;;;;;;;13.47;12.00;;;;;;;;;;4990875;28;20904;-52
2021/07/22 13:44:33;;;;;;;11.73;10.50;;;;;;;;;;4990849;28;20459;-52
2021/07/22 13:46:59;;;;;;;11.47;10.37;;;;;;;;;;4991130;28;20404;-51
2021/07/22 13:49:26;;;;;;;12.13;10.90;;;;;;;;;;4990910;28;20971;-51
2021/07/22 13:51:52;;;;;;;11.00;9.90;;;;;;;;;;4990721;28;20921;-52
2021/07/22 13:54:18;;;;;;;15.00;10.63;;;;;;;;;;4990957;28;20427;-52
2021/07/22 13:56:44;;;;;;;15.20;10.23;;;;;;;;;;4991071;28;20863;-52
2021/07/22 13:59:10;;;;;;;12.47;11.27;;;;;;;;;;4990743;28;20420;-51
2021/07/22 14:01:37;;;;;;;14.07;11.47;;;;;;;;;;4990692;28;20793;-51
2021/07/22 14:04:05;;;;;;;12.00;10.27;;;;;;;;;;4990688;28;20830;-50
2021/07/22 14:06:32;;;;;;;12.47;11.20;;;;;;;;;;4990917;28;20431;-49
2021/07/22 14:08:58;;;;;;;16.83;13.63;;;;;;;;;;4990902;28;20454;-50
2021/07/22 14:11:24;;;;;;;13.63;11.97;;;;;;;;;;4990370;28;20423;-49
2021/07/22 14:13:49;;;;;;;16.57;12.00;;;;;;;;;;4990704;28;20412;-50
2021/07/22 14:16:15;;;;;;;12.10;10.80;;;;;;;;;;4990524;28;20439;-50
2021/07/22 14:18:42;;;;;;;12.23;10.30;;;;;;;;;;4990716;28;20462;-50
2021/07/22 14:21:08;;;;;;;11.00;9.67;;;;;;;;;;4992301;28;20810;-50
2021/07/22 14:23:34;;;;;;;11.57;9.40;;;;;;;;;;4994166;28;20404;-51
2021/07/22 14:26:00;;;;;;;11.97;9.17;;;;;;;;;;4994036;28;20408;-50